createdAt,value
2019-05-03T00:02:27.464Z,96767.78
2019-05-03T00:05:15.502Z,96768.61
2019-05-03T00:07:47.835Z,96768.31
2019-05-03T00:10:19.691Z,96765.94
2019-05-03T00:12:52.744Z,96775.70
2019-05-03T00:15:43.134Z,96767.23
2019-05-03T00:18:14.700Z,96769.55
2019-05-03T00:20:46.182Z,96771.27
2019-05-03T00:23:18.593Z,96765.03
2019-05-03T00:25:52.207Z,96771.73
2019-05-03T00:28:24.507Z,96775.72
2019-05-03T00:30:56.025Z,96775.72
2019-05-03T00:33:27.798Z,96767.78
2019-05-03T00:36:22.367Z,96764.64
2019-05-03T00:38:57.243Z,96769.22
2019-05-03T00:41:28.758Z,96770.59
2019-05-03T00:44:02.105Z,96764.67
2019-05-03T00:46:33.667Z,96764.67
2019-05-03T00:49:05.287Z,96767.63
2019-05-03T00:51:36.876Z,96771.84
2019-05-03T00:54:10.136Z,96763.56
2019-05-03T00:56:44.108Z,96762.00
2019-05-03T00:59:14.999Z,96762.52
2019-05-03T01:01:46.487Z,96763.66
2019-05-03T01:04:18.270Z,96760.38
2019-05-03T01:06:49.791Z,96762.61
2019-05-03T01:09:23.803Z,96754.59
2019-05-03T01:11:55.253Z,96758.11
2019-05-03T01:14:26.744Z,96751.31
2019-05-03T01:16:58.302Z,96751.31
2019-05-03T01:19:31.947Z,96758.20
2019-05-03T01:22:03.559Z,96760.84
2019-05-03T01:24:35.045Z,96757.17
2019-05-03T01:27:06.553Z,96757.17
2019-05-03T01:29:39.485Z,96752.93
2019-05-03T01:32:11.599Z,96752.60
2019-05-03T01:34:43.165Z,96755.11
2019-05-03T01:37:15.741Z,96749.43
2019-05-03T01:39:47.214Z,96751.03
2019-05-03T01:42:18.776Z,96750.23
2019-05-03T01:44:52.087Z,96751.11
2019-05-03T01:47:32.571Z,96752.30
2019-05-03T01:50:15.088Z,96754.72
2019-05-03T01:52:46.936Z,96760.62
2019-05-03T01:55:18.555Z,96751.91
2019-05-03T01:57:50.207Z,96757.31
2019-05-03T02:00:25.898Z,96758.61
2019-05-03T02:03:08.142Z,96755.58
2019-05-03T02:05:43.764Z,96756.81
2019-05-03T02:08:16.848Z,96753.20
2019-05-03T02:10:48.678Z,96750.62
2019-05-03T02:13:20.559Z,96753.20
2019-05-03T02:15:52.779Z,96751.03
2019-05-03T02:18:24.651Z,96749.73
2019-05-03T02:20:56.315Z,96751.30
2019-05-03T02:23:27.837Z,96751.46
2019-05-03T02:25:59.369Z,96748.63
2019-05-03T02:28:32.551Z,96750.30
2019-05-03T02:31:04.200Z,96746.80
2019-05-03T02:33:36.069Z,96750.55
2019-05-03T02:36:07.655Z,96744.44
2019-05-03T02:38:39.534Z,96758.23
2019-05-03T02:41:13.521Z,96764.06
2019-05-03T02:43:48.082Z,96764.06
2019-05-03T02:46:38.087Z,96769.45
2019-05-03T02:49:22.202Z,96762.75
2019-05-03T02:51:55.502Z,96768.06
2019-05-03T02:54:27.371Z,96763.85
2019-05-03T02:56:59.688Z,96767.38
2019-05-03T02:59:34.807Z,96766.67
2019-05-03T03:02:07.683Z,96768.63
2019-05-03T03:04:40.123Z,96769.95
2019-05-03T03:07:12.107Z,96777.72
2019-05-03T03:09:45.270Z,96780.17
2019-05-03T03:12:18.818Z,96780.91
2019-05-03T03:14:51.569Z,96785.37
2019-05-03T03:17:25.680Z,96792.89
2019-05-03T03:20:00.210Z,96793.98
2019-05-03T03:22:36.318Z,96791.13
2019-05-03T03:25:12.394Z,96796.58
2019-05-03T03:27:46.526Z,96796.58
2019-05-03T03:30:38.563Z,96800.91
2019-05-03T03:33:17.502Z,96805.27
2019-05-03T03:35:50.912Z,96805.27
2019-05-03T03:38:26.092Z,96802.95
2019-05-03T03:40:59.768Z,96802.95
2019-05-03T03:43:35.501Z,96809.39
2019-05-03T03:46:09.520Z,96811.24
2019-05-03T03:48:46.007Z,96818.54
2019-05-03T03:51:26.133Z,96818.30
2019-05-03T03:54:00.713Z,96813.67
2019-05-03T03:56:46.040Z,96815.18
2019-05-03T03:59:09.085Z,96818.41
2019-05-03T04:01:45.686Z,96821.31
2019-05-03T04:04:17.530Z,96827.03
2019-05-03T04:06:51.161Z,96821.34
2019-05-03T04:09:25.558Z,96824.95
2019-05-03T04:11:57.478Z,96830.25
2019-05-03T04:14:36.578Z,96831.02
2019-05-03T04:17:32.872Z,96829.42
2019-05-03T04:20:05.185Z,96832.18
2019-05-03T04:22:37.328Z,96832.92
2019-05-03T04:25:10.525Z,96840.72
2019-05-03T04:27:45.634Z,96841.16
2019-05-03T04:30:17.745Z,96843.30
2019-05-03T04:32:49.499Z,96843.67
2019-05-03T04:35:22.328Z,96846.56
2019-05-03T04:37:56.272Z,96850.91
2019-05-03T04:40:30.908Z,96854.63
2019-05-03T04:43:02.905Z,96856.81
2019-05-03T04:45:36.702Z,96856.34
2019-05-03T04:48:27.717Z,96868.94
2019-05-03T04:50:59.788Z,96870.11
2019-05-03T04:53:35.765Z,96865.17
2019-05-03T04:56:07.028Z,96874.33
2019-05-03T04:58:41.801Z,96872.80
2019-05-03T05:01:15.763Z,96877.64
2019-05-03T05:03:47.812Z,96876.86
2019-05-03T05:06:19.704Z,96884.27
2019-05-03T05:08:55.000Z,96882.73
2019-05-03T05:11:27.900Z,96889.79
2019-05-03T05:14:02.398Z,96882.91
2019-05-03T05:16:39.412Z,96888.05
2019-05-03T05:19:15.238Z,96891.03
2019-05-03T05:21:51.045Z,96893.97
2019-05-03T05:24:25.547Z,96894.02
2019-05-03T05:27:28.787Z,96892.16
2019-05-03T05:30:04.582Z,96900.98
2019-05-03T05:32:37.587Z,96901.48
2019-05-03T05:35:10.105Z,96901.27
2019-05-03T05:37:41.895Z,96909.21
2019-05-03T05:40:16.693Z,96909.81
2019-05-03T05:42:49.850Z,96918.25
2019-05-03T05:45:24.577Z,96923.05
2019-05-03T05:48:02.219Z,96927.97
2019-05-03T05:50:37.014Z,96928.37
2019-05-03T05:53:10.748Z,96931.86
2019-05-03T05:56:07.668Z,96924.72
2019-05-03T05:58:47.697Z,96926.70
2019-05-03T06:01:25.226Z,96932.53
2019-05-03T06:03:57.592Z,96934.70
2019-05-03T06:06:48.354Z,96931.98
2019-05-03T06:09:40.245Z,96929.23
2019-05-03T06:12:41.995Z,96933.06
2019-05-03T06:15:34.497Z,96927.56
2019-05-03T06:18:14.553Z,96936.11
2019-05-03T06:21:09.635Z,96933.85
2019-05-03T06:23:47.407Z,96935.83
2019-05-03T06:26:44.325Z,96939.28
2019-05-03T06:29:16.111Z,96939.80
2019-05-03T06:32:21.534Z,96945.03
2019-05-03T06:34:54.591Z,96954.21
2019-05-03T06:37:28.490Z,96953.23
2019-05-03T06:40:00.627Z,96955.69
2019-05-03T06:42:32.317Z,96964.69
2019-05-03T06:45:10.349Z,96952.40
2019-05-03T06:47:40.369Z,96958.42
2019-05-03T06:50:14.350Z,96952.70
2019-05-03T06:52:45.664Z,96955.78
2019-05-03T06:55:17.266Z,96960.86
2019-05-03T06:57:49.863Z,96966.34
2019-05-03T07:00:47.064Z,96961.88
2019-05-03T07:03:37.495Z,96961.63
2019-05-03T07:06:40.390Z,96961.41
2019-05-03T07:09:30.351Z,96949.98
2019-05-03T07:12:04.394Z,96955.08
2019-05-03T07:14:37.020Z,96960.37
2019-05-03T07:17:09.825Z,96962.25
2019-05-03T07:19:42.503Z,96963.26
2019-05-03T07:22:15.262Z,96958.31
2019-05-03T07:24:47.497Z,96967.37
2019-05-03T07:27:21.901Z,96969.33
2019-05-03T07:29:55.467Z,96970.60
2019-05-03T07:32:27.305Z,96972.98
2019-05-03T07:34:59.554Z,96978.52
2019-05-03T07:37:31.548Z,96976.67
2019-05-03T07:40:04.712Z,96990.21
2019-05-03T07:42:38.771Z,96988.14
2019-05-03T07:45:10.896Z,96986.59
2019-05-03T07:47:42.426Z,96985.31
2019-05-03T07:50:15.283Z,96990.96
2019-05-03T07:52:47.095Z,96995.83
2019-05-03T07:55:21.446Z,96993.50
2019-05-03T07:57:56.630Z,96998.63
2019-05-03T08:00:29.143Z,96997.19
2019-05-03T08:03:00.974Z,97003.77
2019-05-03T08:05:32.568Z,97005.28
2019-05-03T08:08:04.775Z,97003.41
2019-05-03T08:10:37.843Z,97009.02
2019-05-03T08:13:09.508Z,97016.03
2019-05-03T08:15:41.785Z,97007.22
2019-05-03T08:18:15.389Z,97012.14
2019-05-03T08:20:47.235Z,97015.95
2019-05-03T08:23:27.528Z,97012.31
2019-05-03T08:25:55.462Z,97013.97
2019-05-03T08:28:26.925Z,97009.81
2019-05-03T08:31:15.763Z,97012.36
2019-05-03T08:34:06.486Z,97021.27
2019-05-03T08:36:58.505Z,97021.92
2019-05-03T08:39:31.037Z,97009.64
2019-05-03T08:42:06.318Z,97018.67
2019-05-03T08:44:40.319Z,97021.49
2019-05-03T08:47:12.214Z,97022.48
2019-05-03T08:49:44.996Z,97023.42
2019-05-03T08:52:21.490Z,97026.30
2019-05-03T08:54:54.995Z,97025.81
2019-05-03T08:57:27.551Z,97026.92
2019-05-03T08:59:59.882Z,97023.36
2019-05-03T09:02:31.627Z,97032.70
2019-05-03T09:05:05.228Z,97025.87
2019-05-03T09:07:37.303Z,97034.70
2019-05-03T09:10:18.643Z,97031.05
2019-05-03T09:13:08.338Z,97028.50
2019-05-03T09:15:41.516Z,97034.69
2019-05-03T09:18:17.380Z,97036.59
2019-05-03T09:20:48.387Z,97030.29
2019-05-03T09:23:23.238Z,97041.00
2019-05-03T09:25:54.875Z,97038.18
2019-05-03T09:28:29.283Z,97040.92
2019-05-03T09:31:01.128Z,97040.19
2019-05-03T09:33:35.645Z,97043.44
2019-05-03T09:36:08.150Z,97044.25
2019-05-03T09:38:40.570Z,97053.94
2019-05-03T09:41:14.863Z,97046.80
2019-05-03T09:43:46.334Z,97035.67
2019-05-03T09:46:23.456Z,97042.69
2019-05-03T09:49:10.336Z,97040.45
2019-05-03T09:51:31.502Z,97037.31
2019-05-03T09:54:14.942Z,97030.08
2019-05-03T09:56:59.945Z,97033.87
2019-05-03T09:59:34.963Z,97027.56
2019-05-03T10:02:06.361Z,97034.19
2019-05-03T10:04:39.888Z,97029.11
2019-05-03T10:07:12.448Z,97019.59
2019-05-03T10:09:55.253Z,97028.01
2019-05-03T10:12:27.606Z,97024.61
2019-05-03T10:15:01.761Z,97024.68
2019-05-03T10:17:48.921Z,97024.59
2019-05-03T10:20:25.033Z,97023.00
2019-05-03T10:22:59.622Z,97023.72
2019-05-03T10:25:32.437Z,97006.31
2019-05-03T10:28:08.202Z,97002.30
2019-05-03T10:30:41.570Z,97006.95
2019-05-03T10:33:18.673Z,97005.55
2019-05-03T10:35:51.846Z,97009.84
2019-05-03T10:38:25.028Z,97003.13
2019-05-03T10:40:59.852Z,96999.00
2019-05-03T10:43:32.310Z,97002.03
2019-05-03T10:46:05.146Z,97004.58
2019-05-03T10:48:37.245Z,97001.80
2019-05-03T10:51:09.307Z,97000.64
2019-05-03T10:53:48.728Z,96993.38
2019-05-03T10:56:32.413Z,96995.12
2019-05-03T10:59:07.227Z,96989.25
2019-05-03T11:01:56.035Z,96995.63
2019-05-03T11:04:29.343Z,96993.75
2019-05-03T11:07:01.494Z,96982.44
2019-05-03T11:09:47.916Z,96988.24
2019-05-03T11:12:09.050Z,96980.13
2019-05-03T11:14:46.017Z,96980.98
2019-05-03T11:17:17.819Z,96970.17
2019-05-03T11:19:50.472Z,96963.86
2019-05-03T11:22:27.119Z,96965.94
2019-05-03T11:25:01.516Z,96973.77
2019-05-03T11:27:45.762Z,96973.86
2019-05-03T11:30:20.919Z,96959.14
2019-05-03T11:33:02.294Z,96956.04
2019-05-03T11:36:08.751Z,96955.93
2019-05-03T11:38:42.830Z,96962.33
2019-05-03T11:41:29.234Z,96952.16
2019-05-03T11:43:49.261Z,96951.89
2019-05-03T11:46:40.189Z,96952.85
2019-05-03T11:49:12.255Z,96950.29
2019-05-03T11:51:44.612Z,96946.38
2019-05-03T11:54:18.524Z,96949.30
2019-05-03T11:56:50.486Z,96952.55
2019-05-03T11:59:22.166Z,96955.54
2019-05-03T12:02:11.351Z,96948.31
2019-05-03T12:04:45.223Z,96957.18
2019-05-03T12:07:39.691Z,96930.91
2019-05-03T12:10:17.559Z,96928.58
2019-05-03T12:12:44.528Z,96931.41
2019-05-03T12:15:17.426Z,96936.53
2019-05-03T12:17:55.490Z,96926.03
2019-05-03T12:20:28.527Z,96930.23
2019-05-03T12:22:58.772Z,96921.90
2019-05-03T12:25:31.780Z,96921.59
2019-05-03T12:28:05.896Z,96911.05
2019-05-03T12:30:38.305Z,96912.00
2019-05-03T12:33:11.664Z,96916.50
2019-05-03T12:35:43.342Z,96903.53
2019-05-03T12:38:16.483Z,96904.34
2019-05-03T12:40:48.292Z,96908.86
2019-05-03T12:43:25.528Z,96905.78
2019-05-03T12:45:56.836Z,96910.28
2019-05-03T12:48:28.645Z,96903.08
2019-05-03T12:51:00.768Z,96903.08
2019-05-03T12:53:32.670Z,96904.59
2019-05-03T12:56:11.435Z,96894.12
2019-05-03T12:59:06.034Z,96895.73
2019-05-03T13:01:56.419Z,96897.75
2019-05-03T13:04:31.623Z,96884.48
2019-05-03T13:07:12.145Z,96890.92
2019-05-03T13:09:45.642Z,96883.64
2019-05-03T13:12:19.559Z,96880.95
2019-05-03T13:14:51.311Z,96877.88
2019-05-03T13:17:41.432Z,96876.63
2019-05-03T13:20:15.281Z,96874.63
2019-05-03T13:22:47.063Z,96866.50
2019-05-03T13:25:19.970Z,96861.84
2019-05-03T13:27:54.697Z,96865.61
2019-05-03T13:30:26.778Z,96862.52
2019-05-03T13:32:58.293Z,96853.70
2019-05-03T13:35:30.084Z,96857.67
2019-05-03T13:38:02.060Z,96859.87
2019-05-03T13:40:35.904Z,96861.29
2019-05-03T13:43:07.744Z,96860.03
2019-05-03T13:45:41.616Z,96850.80
2019-05-03T13:48:15.343Z,96840.16
2019-05-03T13:50:47.599Z,96849.33
2019-05-03T13:53:19.093Z,96853.31
2019-05-03T13:55:51.202Z,96849.84
2019-05-03T13:58:22.797Z,96847.67
2019-05-03T14:00:55.097Z,96838.59
2019-05-03T14:03:30.402Z,96834.20
2019-05-03T14:06:08.813Z,96835.55
2019-05-03T14:08:37.560Z,96842.47
2019-05-03T14:11:09.360Z,96838.23
2019-05-03T14:13:41.236Z,96835.52
2019-05-03T14:16:14.445Z,96836.76
2019-05-03T14:18:48.859Z,96831.05
2019-05-03T14:21:29.016Z,96828.84
2019-05-03T14:24:11.420Z,96827.28
2019-05-03T14:26:44.823Z,96829.72
2019-05-03T14:29:19.743Z,96833.85
2019-05-03T14:31:52.150Z,96826.02
2019-05-03T14:34:25.705Z,96834.53
2019-05-03T14:36:57.129Z,96823.76
2019-05-03T14:39:28.760Z,96826.08
2019-05-03T14:42:00.517Z,96824.06
2019-05-03T14:44:32.316Z,96826.98
2019-05-03T14:47:05.760Z,96822.11
2019-05-03T14:49:39.290Z,96819.33
2019-05-03T14:52:11.200Z,96824.04
2019-05-03T14:54:47.139Z,96823.13
2019-05-03T14:57:35.126Z,96832.00
2019-05-03T15:00:25.968Z,96829.55
2019-05-03T15:03:11.027Z,96837.42
2019-05-03T15:05:42.524Z,96833.95
2019-05-03T15:08:15.246Z,96832.64
2019-05-03T15:10:47.542Z,96832.96
2019-05-03T15:13:19.417Z,96837.05
2019-05-03T15:15:51.285Z,96829.72
2019-05-03T15:18:25.433Z,96836.56
2019-05-03T15:20:57.747Z,96840.02
2019-05-03T15:23:30.469Z,96835.12
2019-05-03T15:26:02.422Z,96830.06
2019-05-03T15:28:35.587Z,96837.27
2019-05-03T15:31:08.046Z,96832.05
2019-05-03T15:33:40.781Z,96830.40
2019-05-03T15:36:12.514Z,96829.77
2019-05-03T15:38:45.003Z,96826.18
2019-05-03T15:41:17.696Z,96814.09
2019-05-03T15:44:05.312Z,96816.39
2019-05-03T15:46:51.514Z,96809.69
2019-05-03T15:49:25.553Z,96810.17
2019-05-03T15:51:57.102Z,96809.80
2019-05-03T15:54:31.752Z,96806.53
2019-05-03T15:57:04.979Z,96808.02
2019-05-03T15:59:36.998Z,96806.20
2019-05-03T16:02:09.847Z,96805.71
2019-05-03T16:04:41.369Z,96810.97
2019-05-03T16:07:14.439Z,96813.75
2019-05-03T16:09:46.107Z,96819.31
2019-05-03T16:12:17.674Z,96824.88
2019-05-03T16:14:49.327Z,96818.83
2019-05-03T16:17:20.952Z,96822.09
2019-05-03T16:19:55.761Z,96819.80
2019-05-03T16:22:27.109Z,96820.14
2019-05-03T16:24:58.774Z,96820.14
2019-05-03T16:27:49.914Z,96820.14
2019-05-03T16:30:55.639Z,96818.98
2019-05-03T16:33:28.608Z,96826.13
2019-05-03T16:36:00.255Z,96820.56
2019-05-03T16:38:32.436Z,96822.86
2019-05-03T16:41:05.163Z,96822.16
2019-05-03T16:43:37.742Z,96822.50
2019-05-03T16:46:09.636Z,96814.13
2019-05-03T16:48:41.634Z,96813.95
2019-05-03T16:51:15.022Z,96815.25
2019-05-03T16:53:46.921Z,96815.89
2019-05-03T16:56:19.638Z,96814.25
2019-05-03T16:58:55.067Z,96815.81
2019-05-03T17:01:27.777Z,96808.30
2019-05-03T17:04:20.887Z,96805.98
2019-05-03T17:07:11.757Z,96812.48
2019-05-03T17:09:54.283Z,96816.88
2019-05-03T17:12:28.891Z,96819.20
2019-05-03T17:15:01.787Z,96817.70
2019-05-03T17:17:34.516Z,96815.08
2019-05-03T17:20:06.788Z,96817.77
2019-05-03T17:22:40.886Z,96820.36
2019-05-03T17:25:15.051Z,96812.20
2019-05-03T17:27:46.925Z,96822.47
2019-05-03T17:30:20.204Z,96821.11
2019-05-03T17:32:55.332Z,96823.72
2019-05-03T17:35:29.637Z,96829.89
2019-05-03T17:38:02.714Z,96820.45
2019-05-03T17:41:05.128Z,96829.25
2019-05-03T17:43:40.842Z,96825.96
2019-05-03T17:46:12.544Z,96824.02
2019-05-03T17:48:45.294Z,96821.43
2019-05-03T17:51:35.067Z,96826.64
2019-05-03T17:54:27.723Z,96814.59
2019-05-03T17:57:04.503Z,96819.46
2019-05-03T17:59:44.447Z,96818.82
2019-05-03T18:02:33.124Z,96820.47
2019-05-03T18:05:20.153Z,96821.61
2019-05-03T18:08:05.854Z,96827.22
2019-05-03T18:10:38.593Z,96827.23
2019-05-03T18:13:10.191Z,96825.28
2019-05-03T18:15:41.731Z,96832.35
2019-05-03T18:18:13.294Z,96827.64
2019-05-03T18:20:45.087Z,96839.52
2019-05-03T18:23:16.687Z,96840.38
2019-05-03T18:25:48.756Z,96847.74
2019-05-03T18:28:20.324Z,96846.13
2019-05-03T18:30:54.579Z,96851.03
2019-05-03T18:33:25.783Z,96850.53
2019-05-03T18:35:57.584Z,96853.31
2019-05-03T18:38:30.834Z,96850.19
2019-05-03T18:41:02.444Z,96854.65
2019-05-03T18:43:39.921Z,96853.05
2019-05-03T18:46:33.329Z,96853.36
2019-05-03T18:49:04.765Z,96857.30
2019-05-03T18:51:36.827Z,96864.48
2019-05-03T18:54:08.633Z,96860.89
2019-05-03T18:56:41.642Z,96862.12
2019-05-03T18:59:14.644Z,96862.77
2019-05-03T19:01:46.486Z,96859.47
2019-05-03T19:04:34.051Z,96856.55
2019-05-03T19:07:04.462Z,96861.72
2019-05-03T19:09:47.265Z,96866.20
2019-05-03T19:12:35.850Z,96863.73
2019-05-03T19:15:08.096Z,96860.58
2019-05-03T19:17:58.354Z,96868.11
2019-05-03T19:20:31.648Z,96866.45
2019-05-03T19:23:04.980Z,96869.41
2019-05-03T19:25:46.252Z,96866.11
2019-05-03T19:28:10.423Z,96866.78
2019-05-03T19:30:44.383Z,96865.50
2019-05-03T19:33:16.135Z,96865.98
2019-05-03T19:35:47.835Z,96866.75
2019-05-03T19:38:19.583Z,96859.41
2019-05-03T19:40:51.372Z,96863.48
2019-05-03T19:43:24.426Z,96866.11
2019-05-03T19:45:56.117Z,96863.51
2019-05-03T19:48:27.843Z,96869.55
2019-05-03T19:50:59.385Z,96867.07
2019-05-03T19:53:49.908Z,96865.50
2019-05-03T19:56:23.060Z,96871.67
2019-05-03T19:58:58.943Z,96873.83
2019-05-03T20:01:58.297Z,96870.26
2019-05-03T20:04:42.602Z,96870.26
2019-05-03T20:07:29.119Z,96870.09
2019-05-03T20:10:00.726Z,96867.28
2019-05-03T20:12:32.305Z,96864.86
2019-05-03T20:15:05.702Z,96862.22
2019-05-03T20:17:37.542Z,96862.70
2019-05-03T20:20:09.187Z,96866.80
2019-05-03T20:22:41.073Z,96865.50
2019-05-03T20:25:12.653Z,96862.87
2019-05-03T20:27:44.728Z,96863.16
2019-05-03T20:30:17.795Z,96866.44
2019-05-03T20:32:49.266Z,96863.48
2019-05-03T20:35:21.359Z,96862.97
2019-05-03T20:37:52.997Z,96866.84
2019-05-03T20:40:25.642Z,96871.77
2019-05-03T20:43:15.824Z,96866.31
2019-05-03T20:46:00.210Z,96868.59
2019-05-03T20:48:31.806Z,96868.55
2019-05-03T20:51:03.487Z,96873.12
2019-05-03T20:53:35.035Z,96868.23
2019-05-03T20:56:06.686Z,96868.80
2019-05-03T20:58:38.177Z,96870.40
2019-05-03T21:01:09.827Z,96866.05
2019-05-03T21:03:41.297Z,96863.85
2019-05-03T21:06:12.839Z,96868.75
2019-05-03T21:08:52.494Z,96875.87
2019-05-03T21:11:17.524Z,96875.65
2019-05-03T21:13:49.191Z,96877.30
2019-05-03T21:16:48.907Z,96870.18
2019-05-03T21:19:35.280Z,96872.91
2019-05-03T21:22:10.755Z,96873.83
2019-05-03T21:24:56.093Z,96878.53
2019-05-03T21:27:27.542Z,96869.50
2019-05-03T21:29:59.030Z,96870.00
2019-05-03T21:32:30.562Z,96870.95
2019-05-03T21:35:02.040Z,96869.50
2019-05-03T21:37:34.900Z,96869.30
2019-05-03T21:40:07.494Z,96873.27
2019-05-03T21:42:39.044Z,96867.77
2019-05-03T21:45:11.899Z,96873.94
2019-05-03T21:48:02.189Z,96864.43
2019-05-03T21:50:35.304Z,96865.06
2019-05-03T21:53:07.224Z,96860.40
2019-05-03T21:55:40.266Z,96861.98
2019-05-03T21:58:16.139Z,96868.02
2019-05-03T22:00:59.722Z,96866.67
2019-05-03T22:03:31.584Z,96855.83
2019-05-03T22:06:04.179Z,96853.70
2019-05-03T22:08:35.789Z,96854.14
2019-05-03T22:11:07.371Z,96849.23
2019-05-03T22:13:39.366Z,96848.77
2019-05-03T22:16:19.170Z,96849.80
2019-05-03T22:18:50.696Z,96842.30
2019-05-03T22:21:34.706Z,96846.20
2019-05-03T22:24:42.035Z,96840.48
2019-05-03T22:27:16.551Z,96840.69
2019-05-03T22:29:48.089Z,96837.45
2019-05-03T22:32:19.747Z,96841.79
2019-05-03T22:34:52.350Z,96841.07
2019-05-03T22:37:25.255Z,96838.51
2019-05-03T22:39:57.798Z,96838.51
2019-05-03T22:42:29.268Z,96845.21
2019-05-03T22:45:01.193Z,96838.27
2019-05-03T22:47:32.823Z,96833.22
2019-05-03T22:50:05.417Z,96840.11
2019-05-03T22:52:37.700Z,96831.82
2019-05-03T22:55:09.458Z,96837.61
2019-05-03T22:57:41.096Z,96840.09
2019-05-03T23:00:14.603Z,96841.07
2019-05-03T23:02:47.805Z,96845.97
2019-05-03T23:05:19.487Z,96841.42
2019-05-03T23:07:51.279Z,96844.98
2019-05-03T23:10:23.101Z,96845.80
2019-05-03T23:12:54.825Z,96845.64
2019-05-03T23:15:27.520Z,96842.56
2019-05-03T23:17:59.167Z,96849.55
2019-05-03T23:20:49.394Z,96849.05
2019-05-03T23:23:38.061Z,96846.28
2019-05-03T23:26:09.756Z,96840.88
2019-05-03T23:28:41.427Z,96841.83
2019-05-03T23:31:14.719Z,96842.08
2019-05-03T23:33:47.288Z,96834.39
2019-05-03T23:36:18.941Z,96841.16
2019-05-03T23:38:50.491Z,96837.34
2019-05-03T23:41:22.073Z,96837.25
2019-05-03T23:43:53.606Z,96847.23
2019-05-03T23:46:30.906Z,96845.26
2019-05-03T23:49:02.744Z,96843.86
2019-05-03T23:51:51.407Z,96841.26
2019-05-03T23:54:24.672Z,96832.30
2019-05-03T23:56:56.547Z,96827.56
2019-05-03T23:59:28.079Z,96822.32
